Latest Weather Observations for Roxby Downs

IDS60801

Issued at 3:01 pm CST Tuesday 28 July 2015 (issued every 30 minutes, with the page automatically refreshed every 10 minutes)

About weather observations | Map of weather stations | Latest weather observations for SA | Other Formats
Station Details ID: 016096 Name: OLYMPIC DAM AERODROME Lat: -30.48 Lon: 136.88 Height: 98.5 m
Data from the previous 72 hours. | See also: Recent months at Roxby Downs
Date/Time
CST
Temp
°C
App
Temp
°C
Dew
Point
Rel
Hum
%
Delta-T
°C
Wind Press
QNH
hPa
Press
MSL
hPa
Rain
since 9 am
mm
Dir
 
Spd
km/h
Gust
km/h
Spd
kts
Gust
kts
28/03:00pm 16.2 13.0 -0.5 32 7.0 N 6 11 3 6 1033.1 1033.2 0.0
28/02:30pm 15.9 11.4 -0.3 33 6.8 N 13 20 7 11 1033.1 1033.2 0.0
28/02:00pm 15.6 11.1 -0.2 34 6.7 NE 13 22 7 12 1033.4 1033.5 0.0
28/01:30pm 15.9 12.3 0.5 35 6.6 NE 9 20 5 11 1033.8 1033.9 0.0
28/01:00pm 15.1 10.3 0.5 37 6.3 NNE 15 20 8 11 1034.4 1034.5 0.0
28/12:30pm 14.4 8.7 0.3 38 5.9 NNE 20 28 11 15 1035.0 1035.2 0.0
28/12:00pm 14.3 8.7 0.2 38 5.9 NNE 19 26 10 14 1035.8 1036.0 0.0
28/11:30am 14.0 9.0 1.3 42 5.4 NNE 17 24 9 13 1036.6 1036.8 0.0
28/11:00am 13.7 9.1 1.4 43 5.3 NE 15 20 8 11 1037.1 1037.2 0.0
28/10:30am 12.9 7.9 1.6 46 4.8 NE 17 24 9 13 1037.3 1037.4 0.0
28/10:00am 11.9 7.3 1.8 50 4.3 NE 15 24 8 13 1037.6 1037.7 0.0
28/09:30am 11.3 7.6 2.1 53 3.9 E 11 17 6 9 1037.9 1038.0 0.0
28/09:00am 8.7 6.3 2.1 63 2.7 SE 4 9 2 5 1038.0 1038.1 0.0
28/08:30am 4.9 2.7 0.9 75 1.5 ESE 2 6 1 3 1038.0 1038.1 0.0
28/08:00am 2.0 -1.1 0.4 89 0.6 SSE 6 7 3 4 1037.8 1037.9 0.0
28/07:30am -1.0 -4.5 -2.7 88 0.5 SSE 6 6 3 3 1037.5 1037.6 0.0
28/07:00am -0.8 -3.9 -2.7 87 0.6 SSW 4 7 2 4 1037.5 1037.6 0.0
28/06:30am 0.9 -2.3 -0.2 92 0.4 SSE 6 6 3 3 1036.6 1036.8 0.0
28/06:00am 0.8 -2.7 -1.0 88 0.6 S 7 9 4 5 1036.4 1036.6 0.0
28/05:30am 0.9 -3.0 -1.2 86 0.7 SSE 9 9 5 5 1035.7 1035.9 0.0
28/05:00am 1.6 -2.6 -0.6 85 0.8 SE 11 13 6 7 1035.4 1035.6 0.0
28/04:30am 0.1 -4.2 -1.5 89 0.6 SE 11 13 6 7 1035.1 1035.3 0.0
28/04:00am -0.9 -4.7 -3.7 81 0.9 SE 7 9 4 5 1035.2 1035.4 0.0
28/03:30am -0.4 -4.2 -3.8 78 1.1 SSE 7 9 4 5 1035.4 1035.6 0.0
28/03:00am 0.5 -3.0 -1.7 85 0.8 S 7 9 4 5 1035.6 1035.8 0.0
28/02:30am -0.2 -4.0 -3.7 77 1.1 SSE 7 9 4 5 1035.7 1035.9 0.0
28/02:00am 0.1 -3.8 -4.2 73 1.4 SE 7 9 4 5 1035.7 1035.9 0.0
28/01:30am 0.5 -3.3 -3.6 74 1.4 SSE 7 7 4 4 1035.9 1036.1 0.0
28/01:00am 1.0 -2.6 -3.5 72 1.6 SE 6 7 3 4 1035.7 1035.9 0.0
28/12:30am 1.8 -2.0 -3.5 68 1.8 SSE 7 9 4 5 1035.9 1036.1 0.0
28/12:00am 2.9 -0.7 -2.0 70 1.7 SSE 7 9 4 5 1036.0 1036.2 0.0
 
Date/Time
CST
Temp
°C
App
Temp
°C
Dew
Point
Rel
Hum
%
Delta-T
°C
Wind Press
QNH
hPa
Press
MSL
hPa
Rain
since 9 am
mm
Dir
 
Spd
km/h
Gust
km/h
Spd
kts
Gust
kts
27/11:30pm 4.1 0.5 0.4 77 1.4 S 9 11 5 6 1036.2 1036.4 0.0
27/11:00pm 3.1 -0.9 -2.4 67 1.9 SE 9 11 5 6 1035.9 1036.1 0.0
27/10:30pm 4.4 0.5 -1.8 64 2.2 SE 9 9 5 5 1036.0 1036.2 0.0
27/10:00pm 5.7 1.9 -0.8 63 2.5 SSE 9 11 5 6 1036.1 1036.3 0.0
27/09:30pm 6.7 2.7 0.2 63 2.5 SE 11 13 6 7 1036.0 1036.2 0.0
27/09:00pm 6.3 2.6 0.2 65 2.3 SE 9 17 5 9 1036.1 1036.3 0.0
27/08:30pm 6.5 3.0 -1.4 57 2.9 S 7 9 4 5 1035.8 1036.0 0.0
27/08:00pm 7.7 4.4 0.4 60 2.9 S 7 11 4 6 1035.7 1035.9 0.0
27/07:30pm 7.5 4.0 -1.2 54 3.3 S 7 9 4 5 1035.8 1036.0 0.0
27/07:00pm 10.0 6.7 0.1 50 4.0 SSE 7 9 4 5 1035.1 1035.3 0.0
27/06:30pm 11.4 7.8 0.8 48 4.4 SSE 9 13 5 7 1034.7 1034.9 0.0
27/06:00pm 12.5 8.2 1.2 46 4.8 SSE 13 17 7 9 1034.5 1034.7 0.0
27/05:30pm 13.6 8.5 0.9 42 5.4 S 17 22 9 12 1034.3 1034.4 0.0
27/05:00pm 14.3 8.8 0.5 39 5.9 S 19 24 10 13 1034.0 1034.1 0.0
27/04:30pm 14.8 9.6 0.3 37 6.1 S 17 22 9 12 1033.8 1033.9 0.0
27/04:00pm 15.2 10.1 0.6 37 6.3 SSE 17 22 9 12 1033.6 1033.7 0.0
27/03:30pm 15.1 9.9 0.2 36 6.3 S 17 26 9 14 1033.7 1033.8 0.0
27/03:00pm 15.1 10.3 0.5 37 6.2 SSW 15 24 8 13 1033.4 1033.5 0.0
27/02:30pm 14.8 10.4 0.6 38 6.0 SE 13 22 7 12 1033.3 1033.4 0.0
27/02:00pm 14.9 10.2 1.1 39 6.0 SSE 15 24 8 13 1033.3 1033.4 0.0
27/01:30pm 14.2 9.5 1.2 41 5.6 SSE 15 24 8 13 1033.8 1033.9 0.0
27/01:00pm 13.6 8.6 1.3 43 5.3 S 17 26 9 14 1034.5 1034.7 0.0
27/12:30pm 14.1 9.5 1.7 43 5.4 S 15 24 8 13 1035.2 1035.4 0.0
27/12:00pm 13.4 9.6 1.7 45 5.0 S 11 20 6 11 1035.8 1036.0 0.0
27/11:30am 13.1 8.6 2.1 47 4.7 SSE 15 26 8 14 1036.2 1036.4 0.0
27/11:00am 12.9 8.4 2.2 48 4.7 SE 15 20 8 11 1036.4 1036.6 0.0
27/10:30am 12.3 6.9 2.2 50 4.3 SSE 20 26 11 14 1036.7 1036.9 0.0
27/10:00am 11.9 6.8 2.9 54 4.0 SSE 19 26 10 14 1036.7 1036.9 0.0
27/09:30am 11.2 6.5 3.3 58 3.4 SSE 17 22 9 12 1036.6 1036.8 0.0
27/09:00am 9.7 6.4 4.5 70 2.3 SSE 11 15 6 8 1036.2 1036.4 0.0
27/08:30am 7.0 4.5 4.0 81 1.3 SSE 6 9 3 5 1035.7 1035.9 0.0
27/08:00am 4.5 2.2 2.7 88 0.7 SSE 4 6 2 3 1035.5 1035.7 0.0
27/07:30am 4.0 1.3 2.5 90 0.6 S 6 7 3 4 1034.9 1035.1 0.0
27/07:00am 4.4 1.7 2.8 89 0.7 S 6 7 3 4 1034.6 1034.8 0.0
27/06:30am 5.2 2.1 3.7 90 0.6 SSE 9 9 5 5 1034.2 1034.3 0.0
27/06:00am 5.8 2.8 4.3 90 0.6 SSE 9 11 5 6 1033.9 1034.0 0.0
27/05:30am 5.4 2.9 4.5 94 0.4 S 7 9 4 5 1033.5 1033.6 0.0
27/05:00am 4.1 1.3 3.4 95 0.3 SSW 7 9 4 5 1033.3 1033.4 0.0
27/04:30am 2.4 -0.9 0.1 85 0.8 SW 7 9 4 5 1033.1 1033.2 0.0
27/04:00am 3.5 0.6 1.2 85 0.9 SSW 6 7 3 4 1032.6 1032.7 0.0
27/03:30am 5.4 2.8 4.1 91 0.5 SSW 7 9 4 5 1032.5 1032.6 0.0
27/03:00am 5.5 2.8 3.8 89 0.7 S 7 9 4 5 1032.4 1032.5 0.0
27/02:30am 5.7 3.0 3.7 87 0.8 SSE 7 11 4 6 1032.4 1032.5 0.0
27/02:00am 6.8 4.3 4.5 85 1.0 SSW 7 9 4 5 1032.2 1032.3 0.0
27/01:30am 7.6 4.7 4.9 83 1.2 SW 9 11 5 6 1032.0 1032.1 0.0
27/01:00am 8.6 5.4 5.0 78 1.6 SW 11 13 6 7 1031.8 1031.9 0.0
27/12:30am 9.7 6.5 5.3 74 2.0 SW 11 15 6 8 1031.7 1031.8 0.0
27/12:00am 9.8 7.0 5.0 72 2.2 SSW 9 11 5 6 1031.5 1031.6 0.0
 
Date/Time
CST
Temp
°C
App
Temp
°C
Dew
Point
Rel
Hum
%
Delta-T
°C
Wind Press
QNH
hPa
Press
MSL
hPa
Rain
since 9 am
mm
Dir
 
Spd
km/h
Gust
km/h
Spd
kts
Gust
kts
26/11:30pm 10.6 7.7 4.9 68 2.6 SSW 9 13 5 7 1031.3 1031.4 0.0
26/11:00pm 11.4 7.4 5.1 65 2.9 S 15 19 8 10 1031.2 1031.3 0.0
26/10:30pm 11.5 7.9 4.9 64 3.0 S 13 17 7 9 1031.1 1031.2 0.0
26/10:00pm 12.0 7.9 4.5 60 3.4 S 15 20 8 11 1030.9 1031.0 0.0
26/09:30pm 12.5 8.8 4.2 57 3.7 S 13 17 7 9 1030.7 1030.8 0.0
26/09:00pm 13.0 7.9 4.2 55 4.0 SSE 20 26 11 14 1030.4 1030.5 0.0
26/08:30pm 13.5 9.3 1.5 44 5.1 SSW 13 17 7 9 1030.0 1030.1 0.0
26/08:00pm 13.5 9.7 1.5 44 5.2 SSW 11 15 6 8 1029.6 1029.7 0.0
26/07:30pm 13.7 9.1 1.4 43 5.3 SSW 15 24 8 13 1029.3 1029.4 0.0
26/07:00pm 13.6 9.0 1.6 44 5.2 SSW 15 22 8 12 1028.9 1029.0 0.0
26/06:30pm 14.1 8.2 1.7 43 5.4 SSW 22 35 12 19 1028.6 1028.7 0.0
26/06:00pm 14.1 8.2 1.7 43 5.4 SSW 22 30 12 16 1027.9 1028.0 0.0
26/05:30pm 14.6 8.8 2.2 43 5.5 SSW 22 33 12 18 1027.6 1027.7 0.0
26/05:00pm 15.0 8.9 2.9 44 5.5 SW 24 39 13 21 1027.1 1027.2 0.0
26/04:30pm 15.6 9.9 3.1 43 5.7 SW 22 32 12 17 1027.0 1027.1 0.0
26/04:00pm 16.0 10.5 3.8 44 5.7 SW 22 32 12 17 1026.7 1026.8 0.0
26/03:30pm 15.3 9.3 3.5 45 5.4 SW 24 35 13 19 1026.7 1026.8 0.0
26/03:00pm 15.6 10.0 3.7 45 5.5 SSW 22 30 12 16 1026.3 1026.5 0.0
26/02:30pm 15.3 9.6 4.7 49 5.0 SSW 24 35 13 19 1026.1 1026.3 0.0
26/02:00pm 16.2 10.8 4.6 46 5.5 SSW 22 32 12 17 1026.0 1026.1 0.0
26/01:30pm 16.1 11.1 4.8 47 5.3 SW 20 30 11 16 1025.9 1026.0 0.0
26/01:00pm 16.0 11.2 5.6 50 5.0 SW 20 30 11 16 1026.2 1026.4 0.0
26/12:30pm 15.2 10.0 5.7 53 4.5 SSW 22 32 12 17 1026.7 1026.8 0.0
26/12:00pm 14.6 10.5 6.4 58 3.9 SW 17 26 9 14 1027.2 1027.3 0.0
26/11:30am 14.6 10.3 6.9 60 3.7 SSW 19 24 10 13 1027.4 1027.5 0.0
26/11:00am 14.5 11.0 7.3 62 3.6 SW 15 20 8 11 1027.5 1027.6 0.0
26/10:30am 13.9 10.1 7.4 65 3.2 SW 17 22 9 12 1027.2 1027.3 0.0
26/10:00am 13.5 9.4 7.7 68 2.9 SW 19 26 10 14 1027.2 1027.3 0.0
26/09:30am 12.4 8.9 7.1 70 2.5 SW 15 20 8 11 1026.3 1026.5 0.0
26/09:00am 11.3 7.5 6.0 70 2.5 WSW 15 19 8 10 1025.8 1025.9 0.0
26/08:30am 10.2 7.4 5.0 70 2.3 W 9 15 5 8 1025.6 1025.7 0.0
26/08:00am 9.2 5.9 4.8 74 2.0 W 11 13 6 7 1025.3 1025.4 0.0
26/07:30am 8.4 5.0 4.2 75 1.8 W 11 13 6 7 1024.9 1025.0 0.0
26/07:00am 8.0 4.9 3.5 73 1.9 WSW 9 11 5 6 1024.1 1024.2 0.0
26/06:30am 8.1 5.0 3.4 72 2.0 WSW 9 11 5 6 1023.8 1023.9 0.0
26/06:00am 8.4 5.3 3.5 71 2.1 W 9 11 5 6 1023.3 1023.4 0.0
26/05:30am 8.3 4.8 3.4 71 2.1 W 11 11 6 6 1022.9 1023.0 0.0
26/05:00am 8.3 5.1 3.2 70 2.2 W 9 11 5 6 1022.5 1022.6 0.0
26/04:30am 8.6 5.0 2.8 67 2.5 W 11 11 6 6 1022.4 1022.5 0.0
26/04:00am 9.4 5.8 2.9 64 2.8 W 11 13 6 7 1022.5 1022.6 0.0
26/03:30am 9.6 6.4 2.9 63 2.9 WSW 9 11 5 6 1022.0 1022.1 0.0
26/03:00am 10.6 7.4 3.2 60 3.2 W 9 13 5 7 1022.3 1022.4 0.0
26/02:30am 10.9 7.3 3.2 59 3.4 WNW 11 15 6 8 1022.6 1022.7 0.0
26/02:00am 11.0 7.8 3.1 58 3.5 W 9 11 5 6 1022.4 1022.5 0.0
26/01:30am 11.5 8.0 3.3 57 3.6 WNW 11 13 6 7 1022.6 1022.7 0.0
26/01:00am 11.6 8.1 3.4 57 3.6 WNW 11 15 6 8 1022.4 1022.5 0.0
26/12:30am 11.2 7.7 3.5 59 3.4 WNW 11 15 6 8 1022.6 1022.7 0.0
26/12:00am 11.3 7.8 3.6 59 3.4 WNW 11 13 6 7 1022.9 1023.0 0.0
 
Date/Time
CST
Temp
°C
App
Temp
°C
Dew
Point
Rel
Hum
%
Delta-T
°C
Wind Press
QNH
hPa
Press
MSL
hPa
Rain
since 9 am
mm
Dir
 
Spd
km/h
Gust
km/h
Spd
kts
Gust
kts
25/11:30pm 11.7 7.8 3.5 57 3.6 NW 13 15 7 8 1023.1 1023.2 0.0
25/11:00pm 12.2 8.3 3.4 55 3.9 NW 13 15 7 8 1022.9 1023.0 0.0
25/10:30pm 12.5 8.6 3.5 54 4.0 NW 13 15 7 8 1023.0 1023.1 0.0
25/10:00pm 12.7 9.2 3.6 54 4.1 NW 11 15 6 8 1022.9 1023.0 0.0
25/09:30pm 12.9 9.0 3.6 53 4.2 NW 13 15 7 8 1022.9 1023.0 0.0
25/09:00pm 13.1 9.2 3.5 52 4.3 WNW 13 15 7 8 1022.8 1022.9 0.0
25/08:30pm 13.3 9.8 3.7 52 4.3 NW 11 13 6 7 1022.6 1022.7 0.0
25/08:00pm 13.7 10.3 3.8 51 4.5 NW 11 13 6 7 1022.4 1022.5 0.0
25/07:30pm 13.6 10.5 3.7 51 4.5 NW 9 11 5 6 1022.1 1022.2 0.0
25/07:00pm 14.2 11.1 3.7 49 4.8 WNW 9 13 5 7 1021.9 1022.0 0.0
25/06:30pm 14.8 11.3 3.6 47 5.1 NW 11 15 6 8 1021.6 1021.7 0.0
25/06:00pm 15.7 11.8 3.5 44 5.6 NW 13 19 7 10 1021.0 1021.1 0.0
25/05:30pm 16.5 11.8 3.2 41 6.1 NW 17 26 9 14 1020.6 1020.7 0.0
25/05:00pm 17.2 11.9 3.1 39 6.5 NW 20 26 11 14 1020.3 1020.4 0.0
25/04:30pm 17.3 12.0 3.2 39 6.5 NW 20 26 11 14 1020.2 1020.3 0.0
25/04:00pm 17.4 12.0 4.4 42 6.2 NW 22 30 12 16 1020.3 1020.4 0.0
25/03:30pm 17.7 12.1 3.2 38 6.7 WNW 22 30 12 16 1020.8 1020.9 0.0

Other Formats:

Comma delimited format used in spreadsheet applications
http://www.bom.gov.au/fwo/IDS60801/IDS60801.95658.axf

JavaScript Object Notation format (JSON) in row-major order
http://www.bom.gov.au/fwo/IDS60801/IDS60801.95658.json